sensor_id;sensor_type;location;lat;lon;timestamp;pressure;altitude;pressure_sealevel;temperature;humidity
10348;BME280;5220;43.192;23.284;2023-04-24T00:00:07;96569.00;;;15.02;100.00
10348;BME280;5220;43.192;23.284;2023-04-24T00:02:35;96567.88;;;15.04;100.00
10348;BME280;5220;43.192;23.284;2023-04-24T00:05:03;96571.31;;;14.87;100.00
10348;BME280;5220;43.192;23.284;2023-04-24T00:07:30;96578.25;;;14.79;100.00
10348;BME280;5220;43.192;23.284;2023-04-24T00:09:56;96565.72;;;14.73;100.00
10348;BME280;5220;43.192;23.284;2023-04-24T00:12:23;96564.47;;;14.77;100.00
10348;BME280;5220;43.192;23.284;2023-04-24T00:14:51;96570.00;;;14.74;100.00
10348;BME280;5220;43.192;23.284;2023-04-24T00:17:18;96574.63;;;14.62;100.00
10348;BME280;5220;43.192;23.284;2023-04-24T00:19:46;96573.97;;;14.60;100.00
10348;BME280;5220;43.192;23.284;2023-04-24T00:22:13;96571.41;;;14.68;100.00
10348;BME280;5220;43.192;23.284;2023-04-24T00:24:40;96578.03;;;14.72;100.00
10348;BME280;5220;43.192;23.284;2023-04-24T00:27:07;96574.16;;;14.67;100.00
10348;BME280;5220;43.192;23.284;2023-04-24T00:29:34;96567.66;;;14.53;100.00
10348;BME280;5220;43.192;23.284;2023-04-24T00:32:02;96569.06;;;14.47;100.00
10348;BME280;5220;43.192;23.284;2023-04-24T00:34:28;96573.31;;;14.48;100.00
10348;BME280;5220;43.192;23.284;2023-04-24T00:36:57;96578.63;;;14.66;100.00
10348;BME280;5220;43.192;23.284;2023-04-24T00:39:24;96571.72;;;14.65;100.00
10348;BME280;5220;43.192;23.284;2023-04-24T00:41:51;96571.59;;;14.57;100.00
10348;BME280;5220;43.192;23.284;2023-04-24T00:44:18;96567.44;;;14.64;100.00
10348;BME280;5220;43.192;23.284;2023-04-24T00:46:45;96565.31;;;14.50;100.00
10348;BME280;5220;43.192;23.284;2023-04-24T00:49:13;96551.53;;;14.48;100.00
10348;BME280;5220;43.192;23.284;2023-04-24T00:51:40;96571.22;;;14.52;100.00
10348;BME280;5220;43.192;23.284;2023-04-24T00:54:10;96563.25;;;14.53;100.00
10348;BME280;5220;43.192;23.284;2023-04-24T00:56:37;96564.50;;;14.49;100.00
10348;BME280;5220;43.192;23.284;2023-04-24T00:59:04;96559.69;;;14.45;100.00
10348;BME280;5220;43.192;23.284;2023-04-24T01:01:31;96569.78;;;14.40;100.00
10348;BME280;5220;43.192;23.284;2023-04-24T01:03:59;96557.66;;;14.39;100.00
10348;BME280;5220;43.192;23.284;2023-04-24T01:06:28;96564.00;;;14.27;100.00
10348;BME280;5220;43.192;23.284;2023-04-24T01:08:57;96565.94;;;14.25;100.00
10348;BME280;5220;43.192;23.284;2023-04-24T01:11:25;96554.47;;;13.98;100.00
10348;BME280;5220;43.192;23.284;2023-04-24T01:13:52;96558.19;;;13.96;100.00
10348;BME280;5220;43.192;23.284;2023-04-24T01:16:19;96560.69;;;13.97;100.00
10348;BME280;5220;43.192;23.284;2023-04-24T01:18:46;96561.88;;;13.47;100.00
10348;BME280;5220;43.192;23.284;2023-04-24T01:21:14;96552.34;;;13.65;100.00
10348;BME280;5220;43.192;23.284;2023-04-24T01:23:43;96569.00;;;13.64;100.00
10348;BME280;5220;43.192;23.284;2023-04-24T01:26:11;96571.50;;;13.66;100.00
10348;BME280;5220;43.192;23.284;2023-04-24T01:28:38;96579.34;;;13.46;100.00
10348;BME280;5220;43.192;23.284;2023-04-24T01:31:04;96596.41;;;13.31;100.00
10348;BME280;5220;43.192;23.284;2023-04-24T01:33:31;96592.06;;;13.02;100.00
10348;BME280;5220;43.192;23.284;2023-04-24T01:35:58;96595.84;;;13.18;100.00
10348;BME280;5220;43.192;23.284;2023-04-24T01:38:26;96605.19;;;13.30;100.00
10348;BME280;5220;43.192;23.284;2023-04-24T01:40:54;96614.56;;;13.14;100.00
10348;BME280;5220;43.192;23.284;2023-04-24T01:43:21;96619.06;;;13.12;100.00
10348;BME280;5220;43.192;23.284;2023-04-24T01:45:48;96620.34;;;12.77;100.00
10348;BME280;5220;43.192;23.284;2023-04-24T01:48:15;96629.53;;;12.72;100.00
10348;BME280;5220;43.192;23.284;2023-04-24T01:50:41;96645.56;;;12.58;100.00
10348;BME280;5220;43.192;23.284;2023-04-24T01:53:08;96641.28;;;12.57;100.00
10348;BME280;5220;43.192;23.284;2023-04-24T01:55:35;96642.34;;;12.84;100.00
10348;BME280;5220;43.192;23.284;2023-04-24T01:58:03;96650.75;;;12.98;100.00
10348;BME280;5220;43.192;23.284;2023-04-24T02:00:30;96660.22;;;12.99;100.00
10348;BME280;5220;43.192;23.284;2023-04-24T02:02:56;96655.31;;;13.05;100.00
10348;BME280;5220;43.192;23.284;2023-04-24T02:05:23;96672.06;;;13.03;100.00
10348;BME280;5220;43.192;23.284;2023-04-24T02:07:50;96682.13;;;13.07;100.00
10348;BME280;5220;43.192;23.284;2023-04-24T02:10:16;96679.91;;;13.03;100.00
10348;BME280;5220;43.192;23.284;2023-04-24T02:12:43;96667.00;;;13.01;100.00
10348;BME280;5220;43.192;23.284;2023-04-24T02:15:11;96669.31;;;12.94;100.00
10348;BME280;5220;43.192;23.284;2023-04-24T02:17:38;96667.13;;;12.60;100.00
10348;BME280;5220;43.192;23.284;2023-04-24T02:20:06;96661.16;;;12.78;100.00
10348;BME280;5220;43.192;23.284;2023-04-24T02:22:33;96647.56;;;12.84;100.00
10348;BME280;5220;43.192;23.284;2023-04-24T02:25:00;96639.72;;;12.84;100.00
10348;BME280;5220;43.192;23.284;2023-04-24T02:27:27;96636.69;;;12.70;100.00
10348;BME280;5220;43.192;23.284;2023-04-24T02:29:53;96635.00;;;12.69;100.00
10348;BME280;5220;43.192;23.284;2023-04-24T02:32:21;96633.91;;;12.71;100.00
10348;BME280;5220;43.192;23.284;2023-04-24T02:34:48;96628.72;;;12.41;100.00
10348;BME280;5220;43.192;23.284;2023-04-24T02:37:15;96616.88;;;12.58;100.00
10348;BME280;5220;43.192;23.284;2023-04-24T02:39:42;96614.53;;;12.64;100.00
10348;BME280;5220;43.192;23.284;2023-04-24T02:42:09;96616.97;;;12.56;100.00
10348;BME280;5220;43.192;23.284;2023-04-24T02:44:36;96604.06;;;12.55;100.00
10348;BME280;5220;43.192;23.284;2023-04-24T02:47:03;96605.97;;;12.53;100.00
10348;BME280;5220;43.192;23.284;2023-04-24T02:49:31;96602.97;;;12.57;100.00
10348;BME280;5220;43.192;23.284;2023-04-24T02:51:58;96599.22;;;12.40;100.00
10348;BME280;5220;43.192;23.284;2023-04-24T02:54:24;96600.13;;;12.30;100.00
10348;BME280;5220;43.192;23.284;2023-04-24T02:56:51;96612.44;;;12.18;100.00
10348;BME280;5220;43.192;23.284;2023-04-24T02:59:18;96610.44;;;12.31;100.00
10348;BME280;5220;43.192;23.284;2023-04-24T03:01:44;96611.06;;;12.24;100.00
10348;BME280;5220;43.192;23.284;2023-04-24T03:04:11;96617.44;;;12.31;100.00
10348;BME280;5220;43.192;23.284;2023-04-24T03:06:39;96607.00;;;12.31;100.00
10348;BME280;5220;43.192;23.284;2023-04-24T03:09:06;96619.09;;;12.32;100.00
10348;BME280;5220;43.192;23.284;2023-04-24T03:11:32;96622.06;;;12.27;100.00
10348;BME280;5220;43.192;23.284;2023-04-24T03:13:59;96624.94;;;12.24;100.00
10348;BME280;5220;43.192;23.284;2023-04-24T03:16:26;96631.09;;;12.14;100.00
10348;BME280;5220;43.192;23.284;2023-04-24T03:18:52;96620.66;;;12.14;100.00
10348;BME280;5220;43.192;23.284;2023-04-24T03:21:19;96627.50;;;12.15;100.00
10348;BME280;5220;43.192;23.284;2023-04-24T03:23:47;96638.75;;;12.15;100.00
10348;BME280;5220;43.192;23.284;2023-04-24T03:26:14;96639.47;;;11.97;100.00
10348;BME280;5220;43.192;23.284;2023-04-24T03:28:40;96624.34;;;11.91;100.00
10348;BME280;5220;43.192;23.284;2023-04-24T03:31:07;96628.66;;;11.80;100.00
10348;BME280;5220;43.192;23.284;2023-04-24T03:33:34;96635.78;;;11.78;100.00
10348;BME280;5220;43.192;23.284;2023-04-24T03:36:01;96642.78;;;11.78;100.00
10348;BME280;5220;43.192;23.284;2023-04-24T03:38:28;96633.16;;;11.58;100.00
10348;BME280;5220;43.192;23.284;2023-04-24T03:40:56;96634.53;;;11.73;100.00
10348;BME280;5220;43.192;23.284;2023-04-24T03:43:22;96636.59;;;11.26;100.00
10348;BME280;5220;43.192;23.284;2023-04-24T03:45:49;96632.44;;;11.56;100.00
10348;BME280;5220;43.192;23.284;2023-04-24T03:48:16;96627.06;;;11.37;100.00
10348;BME280;5220;43.192;23.284;2023-04-24T03:50:43;96629.81;;;11.35;100.00
10348;BME280;5220;43.192;23.284;2023-04-24T03:53:09;96628.81;;;11.47;100.00
10348;BME280;5220;43.192;23.284;2023-04-24T03:55:36;96628.81;;;11.47;100.00
10348;BME280;5220;43.192;23.284;2023-04-24T03:58:04;96638.16;;;11.50;100.00
10348;BME280;5220;43.192;23.284;2023-04-24T04:00:32;96634.28;;;11.65;100.00
10348;BME280;5220;43.192;23.284;2023-04-24T04:03:00;96640.44;;;11.75;100.00
10348;BME280;5220;43.192;23.284;2023-04-24T04:05:27;96634.38;;;11.74;100.00
10348;BME280;5220;43.192;23.284;2023-04-24T04:07:54;96631.94;;;11.62;100.00
10348;BME280;5220;43.192;23.284;2023-04-24T04:10:21;96626.88;;;11.81;100.00
10348;BME280;5220;43.192;23.284;2023-04-24T04:12:47;96629.00;;;11.87;100.00
10348;BME280;5220;43.192;23.284;2023-04-24T04:15:16;96627.47;;;11.84;100.00
10348;BME280;5220;43.192;23.284;2023-04-24T04:17:42;96613.66;;;11.94;100.00
10348;BME280;5220;43.192;23.284;2023-04-24T04:20:09;96626.06;;;11.80;100.00
10348;BME280;5220;43.192;23.284;2023-04-24T04:22:37;96615.31;;;11.74;100.00
10348;BME280;5220;43.192;23.284;2023-04-24T04:25:04;96619.16;;;11.59;100.00
10348;BME280;5220;43.192;23.284;2023-04-24T04:27:32;96609.56;;;11.70;100.00
10348;BME280;5220;43.192;23.284;2023-04-24T04:29:59;96605.28;;;11.90;100.00
10348;BME280;5220;43.192;23.284;2023-04-24T04:32:28;96607.50;;;11.95;100.00
10348;BME280;5220;43.192;23.284;2023-04-24T04:34:54;96611.34;;;11.70;100.00
10348;BME280;5220;43.192;23.284;2023-04-24T04:37:21;96613.69;;;11.73;100.00
10348;BME280;5220;43.192;23.284;2023-04-24T04:39:48;96598.38;;;11.79;100.00
10348;BME280;5220;43.192;23.284;2023-04-24T04:42:14;96603.28;;;12.03;100.00
10348;BME280;5220;43.192;23.284;2023-04-24T04:44:41;96599.78;;;12.14;100.00
10348;BME280;5220;43.192;23.284;2023-04-24T04:47:08;96601.81;;;11.69;100.00
10348;BME280;5220;43.192;23.284;2023-04-24T04:49:37;96596.69;;;11.99;100.00
10348;BME280;5220;43.192;23.284;2023-04-24T04:52:04;96586.50;;;12.17;100.00
10348;BME280;5220;43.192;23.284;2023-04-24T04:54:31;96592.28;;;12.30;100.00
10348;BME280;5220;43.192;23.284;2023-04-24T04:56:58;96584.38;;;12.41;100.00
10348;BME280;5220;43.192;23.284;2023-04-24T04:59:25;96595.19;;;12.36;100.00
10348;BME280;5220;43.192;23.284;2023-04-24T05:01:52;96592.03;;;12.33;100.00
10348;BME280;5220;43.192;23.284;2023-04-24T05:04:19;96602.13;;;12.47;100.00
10348;BME280;5220;43.192;23.284;2023-04-24T05:06:47;96587.75;;;12.62;100.00
10348;BME280;5220;43.192;23.284;2023-04-24T05:09:13;96594.31;;;12.57;100.00
10348;BME280;5220;43.192;23.284;2023-04-24T05:11:40;96589.59;;;12.90;100.00
10348;BME280;5220;43.192;23.284;2023-04-24T05:14:07;96590.06;;;13.15;100.00
10348;BME280;5220;43.192;23.284;2023-04-24T05:16:33;96585.66;;;13.15;100.00
10348;BME280;5220;43.192;23.284;2023-04-24T05:19:02;96585.41;;;13.37;100.00
10348;BME280;5220;43.192;23.284;2023-04-24T05:21:29;96591.19;;;13.22;100.00
10348;BME280;5220;43.192;23.284;2023-04-24T05:23:57;96584.56;;;13.46;100.00
10348;BME280;5220;43.192;23.284;2023-04-24T05:26:24;96582.06;;;13.64;100.00
10348;BME280;5220;43.192;23.284;2023-04-24T05:28:50;96576.41;;;13.78;100.00
10348;BME280;5220;43.192;23.284;2023-04-24T05:31:17;96585.75;;;13.90;100.00
10348;BME280;5220;43.192;23.284;2023-04-24T05:33:44;96579.66;;;13.99;100.00
10348;BME280;5220;43.192;23.284;2023-04-24T05:36:10;96589.81;;;14.12;100.00
10348;BME280;5220;43.192;23.284;2023-04-24T05:38:37;96588.88;;;14.04;100.00
10348;BME280;5220;43.192;23.284;2023-04-24T05:41:05;96581.44;;;14.09;100.00
10348;BME280;5220;43.192;23.284;2023-04-24T05:43:32;96586.09;;;14.15;100.00
10348;BME280;5220;43.192;23.284;2023-04-24T05:45:58;96587.22;;;14.02;100.00
10348;BME280;5220;43.192;23.284;2023-04-24T05:48:25;96578.44;;;13.94;100.00
10348;BME280;5220;43.192;23.284;2023-04-24T05:50:52;96576.84;;;14.20;100.00
10348;BME280;5220;43.192;23.284;2023-04-24T05:53:19;96586.34;;;14.21;100.00
10348;BME280;5220;43.192;23.284;2023-04-24T05:55:46;96584.22;;;13.97;100.00
10348;BME280;5220;43.192;23.284;2023-04-24T05:58:15;96578.25;;;14.05;100.00
10348;BME280;5220;43.192;23.284;2023-04-24T06:00:41;96578.63;;;14.20;100.00
10348;BME280;5220;43.192;23.284;2023-04-24T06:03:08;96580.13;;;14.32;100.00
10348;BME280;5220;43.192;23.284;2023-04-24T06:05:35;96575.09;;;14.48;100.00
10348;BME280;5220;43.192;23.284;2023-04-24T06:08:02;96571.13;;;14.71;100.00
10348;BME280;5220;43.192;23.284;2023-04-24T06:10:28;96565.19;;;14.79;100.00
10348;BME280;5220;43.192;23.284;2023-04-24T06:12:55;96572.69;;;14.64;100.00
10348;BME280;5220;43.192;23.284;2023-04-24T06:15:28;96570.84;;;14.47;100.00
10348;BME280;5220;43.192;23.284;2023-04-24T06:17:55;96562.19;;;14.64;100.00
10348;BME280;5220;43.192;23.284;2023-04-24T06:20:22;96561.97;;;14.85;100.00
10348;BME280;5220;43.192;23.284;2023-04-24T06:22:49;96562.69;;;14.77;100.00
10348;BME280;5220;43.192;23.284;2023-04-24T06:25:16;96558.16;;;14.97;100.00
10348;BME280;5220;43.192;23.284;2023-04-24T06:27:43;96561.75;;;15.14;100.00
10348;BME280;5220;43.192;23.284;2023-04-24T06:30:10;96565.72;;;15.18;100.00
10348;BME280;5220;43.192;23.284;2023-04-24T06:32:39;96557.03;;;15.35;100.00
10348;BME280;5220;43.192;23.284;2023-04-24T06:35:07;96562.13;;;15.36;100.00
10348;BME280;5220;43.192;23.284;2023-04-24T06:37:35;96565.25;;;15.57;100.00
10348;BME280;5220;43.192;23.284;2023-04-24T06:40:02;96570.72;;;15.46;100.00
10348;BME280;5220;43.192;23.284;2023-04-24T06:42:28;96571.69;;;15.45;100.00
10348;BME280;5220;43.192;23.284;2023-04-24T06:44:55;96578.91;;;15.61;100.00
10348;BME280;5220;43.192;23.284;2023-04-24T06:47:22;96580.81;;;15.77;100.00
10348;BME280;5220;43.192;23.284;2023-04-24T06:49:50;96577.31;;;15.68;100.00
10348;BME280;5220;43.192;23.284;2023-04-24T06:52:17;96585.66;;;15.89;100.00
10348;BME280;5220;43.192;23.284;2023-04-24T06:54:44;96589.44;;;16.12;100.00
10348;BME280;5220;43.192;23.284;2023-04-24T06:57:11;96589.47;;;16.21;100.00
10348;BME280;5220;43.192;23.284;2023-04-24T06:59:38;96593.34;;;16.34;100.00
10348;BME280;5220;43.192;23.284;2023-04-24T07:02:04;96591.47;;;16.01;100.00
10348;BME280;5220;43.192;23.284;2023-04-24T07:04:31;96592.06;;;16.12;100.00
10348;BME280;5220;43.192;23.284;2023-04-24T07:06:59;96590.84;;;16.33;100.00
10348;BME280;5220;43.192;23.284;2023-04-24T07:09:26;96587.66;;;16.47;100.00
10348;BME280;5220;43.192;23.284;2023-04-24T07:11:53;96595.22;;;16.50;100.00
10348;BME280;5220;43.192;23.284;2023-04-24T07:14:21;96598.41;;;16.36;100.00
10348;BME280;5220;43.192;23.284;2023-04-24T07:16:48;96606.09;;;16.29;100.00
10348;BME280;5220;43.192;23.284;2023-04-24T07:19:15;96612.38;;;16.10;100.00
10348;BME280;5220;43.192;23.284;2023-04-24T07:21:42;96606.81;;;16.13;100.00
10348;BME280;5220;43.192;23.284;2023-04-24T07:24:10;96604.78;;;16.25;100.00
10348;BME280;5220;43.192;23.284;2023-04-24T07:26:38;96623.66;;;16.03;100.00
10348;BME280;5220;43.192;23.284;2023-04-24T07:29:05;96618.72;;;15.82;100.00
10348;BME280;5220;43.192;23.284;2023-04-24T07:31:32;96625.50;;;16.10;100.00
10348;BME280;5220;43.192;23.284;2023-04-24T07:33:59;96633.94;;;15.96;100.00
10348;BME280;5220;43.192;23.284;2023-04-24T07:36:26;96629.84;;;15.58;100.00
10348;BME280;5220;43.192;23.284;2023-04-24T07:38:53;96643.19;;;15.65;100.00
10348;BME280;5220;43.192;23.284;2023-04-24T07:41:22;96643.25;;;15.73;100.00
10348;BME280;5220;43.192;23.284;2023-04-24T07:43:49;96646.47;;;15.49;100.00
10348;BME280;5220;43.192;23.284;2023-04-24T07:46:16;96647.59;;;15.47;100.00
10348;BME280;5220;43.192;23.284;2023-04-24T07:48:43;96642.47;;;15.45;100.00
10348;BME280;5220;43.192;23.284;2023-04-24T07:51:11;96636.69;;;15.69;100.00
10348;BME280;5220;43.192;23.284;2023-04-24T07:53:38;96641.06;;;15.86;100.00
10348;BME280;5220;43.192;23.284;2023-04-24T07:56:05;96626.41;;;16.01;100.00
10348;BME280;5220;43.192;23.284;2023-04-24T07:58:34;96613.50;;;16.08;100.00
10348;BME280;5220;43.192;23.284;2023-04-24T08:01:00;96600.78;;;15.95;100.00
10348;BME280;5220;43.192;23.284;2023-04-24T08:03:27;96585.16;;;16.11;100.00
10348;BME280;5220;43.192;23.284;2023-04-24T08:05:54;96568.81;;;16.26;100.00
10348;BME280;5220;43.192;23.284;2023-04-24T08:08:22;96558.53;;;16.32;100.00
10348;BME280;5220;43.192;23.284;2023-04-24T08:10:48;96555.13;;;16.40;100.00
10348;BME280;5220;43.192;23.284;2023-04-24T08:13:15;96556.75;;;16.41;100.00
10348;BME280;5220;43.192;23.284;2023-04-24T08:15:43;96550.63;;;16.58;100.00
10348;BME280;5220;43.192;23.284;2023-04-24T08:18:10;96553.97;;;16.68;100.00
10348;BME280;5220;43.192;23.284;2023-04-24T08:20:38;96547.94;;;16.84;100.00
10348;BME280;5220;43.192;23.284;2023-04-24T08:23:05;96545.84;;;16.20;100.00
10348;BME280;5220;43.192;23.284;2023-04-24T08:25:32;96545.78;;;16.37;100.00
10348;BME280;5220;43.192;23.284;2023-04-24T08:28:01;96531.28;;;16.59;100.00
10348;BME280;5220;43.192;23.284;2023-04-24T08:30:28;96525.72;;;16.78;100.00
10348;BME280;5220;43.192;23.284;2023-04-24T08:32:56;96517.09;;;17.10;100.00
10348;BME280;5220;43.192;23.284;2023-04-24T08:35:23;96518.25;;;17.32;100.00
10348;BME280;5220;43.192;23.284;2023-04-24T08:37:50;96517.47;;;17.55;100.00
10348;BME280;5220;43.192;23.284;2023-04-24T08:40:17;96515.47;;;17.41;100.00
10348;BME280;5220;43.192;23.284;2023-04-24T08:42:44;96519.25;;;17.47;100.00
10348;BME280;5220;43.192;23.284;2023-04-24T08:45:11;96511.56;;;17.61;100.00
10348;BME280;5220;43.192;23.284;2023-04-24T08:47:39;96503.47;;;17.63;100.00
10348;BME280;5220;43.192;23.284;2023-04-24T08:50:09;96508.06;;;17.85;100.00
10348;BME280;5220;43.192;23.284;2023-04-24T08:52:36;96514.94;;;18.02;100.00
10348;BME280;5220;43.192;23.284;2023-04-24T08:55:03;96517.16;;;18.21;100.00
10348;BME280;5220;43.192;23.284;2023-04-24T08:57:31;96512.50;;;18.40;99.19
10348;BME280;5220;43.192;23.284;2023-04-24T08:59:59;96507.19;;;18.56;94.18
10348;BME280;5220;43.192;23.284;2023-04-24T09:02:27;96501.97;;;18.78;100.00
10348;BME280;5220;43.192;23.284;2023-04-24T09:04:55;96502.34;;;18.98;97.56
10348;BME280;5220;43.192;23.284;2023-04-24T09:07:24;96504.56;;;18.87;90.22
10348;BME280;5220;43.192;23.284;2023-04-24T09:09:52;96508.13;;;18.94;91.99
10348;BME280;5220;43.192;23.284;2023-04-24T09:12:19;96493.91;;;18.80;83.41
10348;BME280;5220;43.192;23.284;2023-04-24T09:14:48;96498.78;;;19.14;82.99
10348;BME280;5220;43.192;23.284;2023-04-24T09:17:15;96504.81;;;19.22;85.35
10348;BME280;5220;43.192;23.284;2023-04-24T09:19:41;96500.75;;;19.34;76.13
10348;BME280;5220;43.192;23.284;2023-04-24T09:22:09;96493.47;;;19.45;74.58
10348;BME280;5220;43.192;23.284;2023-04-24T09:24:38;96491.53;;;19.76;71.02
10348;BME280;5220;43.192;23.284;2023-04-24T09:27:05;96488.72;;;19.92;63.31
10348;BME280;5220;43.192;23.284;2023-04-24T09:29:31;96482.81;;;20.19;68.73
10348;BME280;5220;43.192;23.284;2023-04-24T09:31:59;96476.25;;;19.86;69.26
10348;BME280;5220;43.192;23.284;2023-04-24T09:34:27;96481.06;;;20.12;70.49
10348;BME280;5220;43.192;23.284;2023-04-24T09:36:54;96472.16;;;20.27;66.92
10348;BME280;5220;43.192;23.284;2023-04-24T09:39:21;96481.25;;;20.39;61.97
10348;BME280;5220;43.192;23.284;2023-04-24T09:41:50;96475.44;;;20.44;65.39
10348;BME280;5220;43.192;23.284;2023-04-24T09:44:18;96474.16;;;20.55;70.60
10348;BME280;5220;43.192;23.284;2023-04-24T09:46:49;96466.22;;;20.55;62.08
10348;BME280;5220;43.192;23.284;2023-04-24T09:49:21;96476.63;;;20.42;63.78
10348;BME280;5220;43.192;23.284;2023-04-24T09:51:48;96470.59;;;20.48;64.55
10348;BME280;5220;43.192;23.284;2023-04-24T09:54:17;96471.97;;;20.44;67.14
10348;BME280;5220;43.192;23.284;2023-04-24T09:56:46;96474.84;;;20.49;68.51
10348;BME280;5220;43.192;23.284;2023-04-24T09:59:15;96469.66;;;20.55;77.81
10348;BME280;5220;43.192;23.284;2023-04-24T10:01:42;96471.38;;;20.63;80.51
10348;BME280;5220;43.192;23.284;2023-04-24T10:04:17;96476.78;;;20.55;85.67
10348;BME280;5220;43.192;23.284;2023-04-24T10:06:45;96476.13;;;20.53;86.05
10348;BME280;5220;43.192;23.284;2023-04-24T10:09:12;96473.78;;;20.43;82.60
10348;BME280;5220;43.192;23.284;2023-04-24T10:11:42;96475.06;;;20.47;91.27
10348;BME280;5220;43.192;23.284;2023-04-24T10:14:12;96471.44;;;20.48;95.01
10348;BME280;5220;43.192;23.284;2023-04-24T10:16:41;96473.78;;;20.58;97.78
10348;BME280;5220;43.192;23.284;2023-04-24T10:19:09;96470.34;;;20.28;100.00
10348;BME280;5220;43.192;23.284;2023-04-24T10:21:36;96468.16;;;20.17;95.05
10348;BME280;5220;43.192;23.284;2023-04-24T10:24:07;96462.72;;;20.33;95.07
10348;BME280;5220;43.192;23.284;2023-04-24T10:26:35;96460.13;;;20.39;91.68
10348;BME280;5220;43.192;23.284;2023-04-24T10:29:05;96466.31;;;20.47;92.26
10348;BME280;5220;43.192;23.284;2023-04-24T10:31:36;96465.66;;;20.59;96.37
10348;BME280;5220;43.192;23.284;2023-04-24T10:34:05;96461.84;;;20.47;100.00
10348;BME280;5220;43.192;23.284;2023-04-24T10:36:32;96460.16;;;20.97;97.01
10348;BME280;5220;43.192;23.284;2023-04-24T10:39:02;96455.69;;;20.97;86.63
10348;BME280;5220;43.192;23.284;2023-04-24T10:41:30;96457.19;;;21.06;81.60
10348;BME280;5220;43.192;23.284;2023-04-24T10:44:06;96459.38;;;21.38;79.25
10348;BME280;5220;43.192;23.284;2023-04-24T10:46:33;96455.84;;;21.10;79.87
10348;BME280;5220;43.192;23.284;2023-04-24T10:49:04;96460.28;;;20.88;88.16
10348;BME280;5220;43.192;23.284;2023-04-24T10:51:45;96450.91;;;21.07;84.19
10348;BME280;5220;43.192;23.284;2023-04-24T10:54:22;96441.53;;;21.05;88.37
10348;BME280;5220;43.192;23.284;2023-04-24T10:56:50;96436.06;;;21.27;86.38
10348;BME280;5220;43.192;23.284;2023-04-24T10:59:24;96444.75;;;21.21;72.75
10348;BME280;5220;43.192;23.284;2023-04-24T11:01:52;96445.13;;;21.18;68.04
10348;BME280;5220;43.192;23.284;2023-04-24T11:04:30;96438.91;;;21.26;75.73
10348;BME280;5220;43.192;23.284;2023-04-24T11:06:57;96432.63;;;21.33;73.22
10348;BME280;5220;43.192;23.284;2023-04-24T11:09:27;96438.28;;;21.52;60.11
10348;BME280;5220;43.192;23.284;2023-04-24T11:12:03;96429.28;;;21.74;63.69
10348;BME280;5220;43.192;23.284;2023-04-24T11:15:01;96435.34;;;21.95;68.39
10348;BME280;5220;43.192;23.284;2023-04-24T11:17:32;96427.69;;;22.07;60.20
10348;BME280;5220;43.192;23.284;2023-04-24T11:20:05;96428.56;;;22.21;61.32
10348;BME280;5220;43.192;23.284;2023-04-24T11:22:34;96422.13;;;22.02;54.76
10348;BME280;5220;43.192;23.284;2023-04-24T11:25:02;96425.06;;;21.86;55.74
10348;BME280;5220;43.192;23.284;2023-04-24T11:27:30;96426.56;;;21.67;57.60
10348;BME280;5220;43.192;23.284;2023-04-24T11:30:01;96429.06;;;21.69;54.08
10348;BME280;5220;43.192;23.284;2023-04-24T11:32:29;96430.81;;;21.62;55.35
10348;BME280;5220;43.192;23.284;2023-04-24T11:34:57;96427.47;;;21.47;74.60
10348;BME280;5220;43.192;23.284;2023-04-24T11:37:27;96438.19;;;21.38;96.88
10348;BME280;5220;43.192;23.284;2023-04-24T11:39:55;96438.25;;;21.24;100.00
10348;BME280;5220;43.192;23.284;2023-04-24T11:42:22;96452.84;;;20.77;100.00
10348;BME280;5220;43.192;23.284;2023-04-24T11:44:52;96456.31;;;20.78;100.00
10348;BME280;5220;43.192;23.284;2023-04-24T11:47:27;96464.06;;;20.65;100.00
10348;BME280;5220;43.192;23.284;2023-04-24T11:49:54;96460.13;;;20.75;100.00
10348;BME280;5220;43.192;23.284;2023-04-24T11:52:21;96458.13;;;20.42;100.00
10348;BME280;5220;43.192;23.284;2023-04-24T11:54:50;96465.75;;;19.93;100.00
10348;BME280;5220;43.192;23.284;2023-04-24T11:57:19;96479.28;;;19.38;100.00
10348;BME280;5220;43.192;23.284;2023-04-24T11:59:45;96486.09;;;19.32;100.00
10348;BME280;5220;43.192;23.284;2023-04-24T12:02:20;96491.22;;;19.71;100.00
10348;BME280;5220;43.192;23.284;2023-04-24T12:04:47;96484.59;;;19.75;100.00
10348;BME280;5220;43.192;23.284;2023-04-24T12:07:14;96476.31;;;19.93;100.00
10348;BME280;5220;43.192;23.284;2023-04-24T12:09:42;96460.47;;;19.93;100.00
10348;BME280;5220;43.192;23.284;2023-04-24T12:12:11;96458.84;;;19.92;100.00
10348;BME280;5220;43.192;23.284;2023-04-24T12:14:48;96450.13;;;20.20;100.00
10348;BME280;5220;43.192;23.284;2023-04-24T12:17:15;96454.00;;;19.66;100.00
10348;BME280;5220;43.192;23.284;2023-04-24T12:19:46;96463.22;;;19.70;100.00
10348;BME280;5220;43.192;23.284;2023-04-24T12:22:13;96460.66;;;19.39;100.00
10348;BME280;5220;43.192;23.284;2023-04-24T12:24:59;96466.81;;;19.40;100.00
10348;BME280;5220;43.192;23.284;2023-04-24T12:27:29;96459.16;;;19.45;100.00
10348;BME280;5220;43.192;23.284;2023-04-24T12:29:56;96449.91;;;19.63;100.00
10348;BME280;5220;43.192;23.284;2023-04-24T12:32:25;96442.16;;;19.62;100.00
10348;BME280;5220;43.192;23.284;2023-04-24T12:34:52;96433.97;;;19.71;100.00
10348;BME280;5220;43.192;23.284;2023-04-24T12:37:19;96432.09;;;19.95;100.00
10348;BME280;5220;43.192;23.284;2023-04-24T12:39:59;96428.06;;;19.84;100.00
10348;BME280;5220;43.192;23.284;2023-04-24T12:42:28;96423.91;;;20.04;100.00
10348;BME280;5220;43.192;23.284;2023-04-24T12:45:00;96424.69;;;20.19;100.00
10348;BME280;5220;43.192;23.284;2023-04-24T12:47:28;96416.16;;;20.17;100.00
10348;BME280;5220;43.192;23.284;2023-04-24T12:49:55;96409.22;;;20.16;100.00
10348;BME280;5220;43.192;23.284;2023-04-24T12:52:22;96405.63;;;20.24;100.00
10348;BME280;5220;43.192;23.284;2023-04-24T12:54:53;96394.59;;;20.50;100.00